Huvudsida
METAR-TAF:

METAR-TAF

Flygplatser :

Air Force Base Waterkloof

Waterkloof, Sydafrika

latitud: 25-50S, longitud: 028-13E, höjd: 1498 m

Aktuellt väderrapport

Denna rapport gjordes för 57 minuter sedan, klockan 14:00 UTC
Vind 2 kt från nordväst
Temperatur 20°C
Fuktighet 26%
Tryck 1026 hPa

METAR: FAWK 161400Z AUTO 32002KT //// // ////// 20/00 Q1026

Tid: 16:57 (14:57 UTC)

Väderprognos

Denna rapport gjordes för 5 timmar och 57 minuter sedan, klockan 09:00 UTC
Prognos gäller från 16 kl. 10 UTC till 16 kl. 18 UTC
Vind 8 kt från ost
Sikt 10 km eller mer
Inga moln under 1 500 m eller inga cumulonimbus
Blir
från 16 kl. 12 UTC till 16 kl. 14 UTC
Vind 3 kt varierande vindriktning

TAF: FAWK 160900Z 1610/1618 08008KT CAVOK TX20/1612Z TN13/1618Z BECMG 1612/1614 VRB03KT

Aktuella väderrapporter och prognoser från 4000 flygplatser (METAR- och TAF-rapporter).

De tillgängliga stationerna syns som gula och röda prickar på kartan.

För musen över prickarna för att se namnen på stationerna.

Klicka sedan för att få väderrapporter och prognoser.

För att ändra kartan: Klicka på de gröna knapparna med ett svart kors på för att zooma in; den gröna knappen med ett streck på för att zooma ut; eller på de gröna pilarna för angränsande kartor.


METAR-TAF: